KRHI/RHI METAR and TAF weather

Enter ICAO airport designator
Station Type Date Time Source
KRHI METAR 2019/02/20 23:24 UTC NOAA

KRHI 202324Z AUTO 11009KT 1SM -SN SCT011 OVC018 M04/M07 A2956 RMK AO2 P0000 T10391067


Station Type Date Time Source
KRHI Decoded METAR 2019/02/20 23:24 UTC NOAA

RHINELANDER-ONEIDA CO AIRPORT , WI, United States (KRHI) 45-38N 89-29W 485M
Feb 20, 2019 - 06:24 PM EST / 2019.02.20 2324 UTC
Wind: from the ESE (110 degrees) at 10 MPH (9 KT):0
Visibility: 1 mile(s):0
Sky conditions: overcast
Weather: light snow
Precipitation last hour: A trace
Temperature: 25.0 F (-3.9 C)
Windchill: 15 F (-9 C):1
Dew Point: 19.9 F (-6.7 C)
Relative Humidity: 80%
Pressure (altimeter): 29.56 in. Hg (1001 hPa)
ob: KRHI 202324Z AUTO 11009KT 1SM -SN SCT011 OVC018 M04/M07 A2956 RMK AO2 P0000 T10391067
cycle: 23

Station Type Date Time Source
KRHI TAF 2019/02/20 18:36 UTC NOAA

TAF KRHI 201732Z 2018/2118 10009G18KT 1SM -SN OVC012 WS020/13035KT
TEMPO 2018/2022 1/2SM SN VV008
FM202300 14003KT 1SM -SN BR OVC010
FM210300 25007KT 5SM -SN OVC014
FM210700 26009KT P6SM -SHSN OVC015
FM211200 27007KT P6SM OVC020


Example: see airport list